sensor_id;sensor_type;location;lat;lon;timestamp;pressure;altitude;pressure_sealevel;temperature;humidity
54554;BME280;40450;55.848;-3.572;2022-07-19T00:01:53;99260.18;;;22.00;44.20
54554;BME280;40450;55.848;-3.572;2022-07-19T00:04:22;99247.01;;;23.47;38.08
54554;BME280;40450;55.848;-3.572;2022-07-19T00:06:53;99244.76;;;24.18;36.99
54554;BME280;40450;55.848;-3.572;2022-07-19T00:09:25;99234.35;;;24.63;34.34
54554;BME280;40450;55.848;-3.572;2022-07-19T00:11:55;99234.01;;;23.99;33.15
54554;BME280;40450;55.848;-3.572;2022-07-19T00:14:24;99231.86;;;24.13;34.36
54554;BME280;40450;55.848;-3.572;2022-07-19T00:16:54;99228.93;;;23.92;36.25
54554;BME280;40450;55.848;-3.572;2022-07-19T00:19:24;99224.54;;;24.01;36.33
54554;BME280;40450;55.848;-3.572;2022-07-19T00:21:55;99214.42;;;23.90;37.00
54554;BME280;40450;55.848;-3.572;2022-07-19T00:24:25;99210.84;;;24.17;36.11
54554;BME280;40450;55.848;-3.572;2022-07-19T00:26:55;99210.50;;;24.19;35.56
54554;BME280;40450;55.848;-3.572;2022-07-19T00:29:26;99216.45;;;24.16;35.98
54554;BME280;40450;55.848;-3.572;2022-07-19T00:31:56;99220.75;;;23.95;36.99
54554;BME280;40450;55.848;-3.572;2022-07-19T00:34:26;99217.64;;;23.94;36.13
54554;BME280;40450;55.848;-3.572;2022-07-19T00:36:57;99215.42;;;23.97;36.17
54554;BME280;40450;55.848;-3.572;2022-07-19T00:39:27;99213.51;;;24.29;35.73
54554;BME280;40450;55.848;-3.572;2022-07-19T00:41:57;99217.71;;;24.37;34.34
54554;BME280;40450;55.848;-3.572;2022-07-19T00:44:27;99212.59;;;22.10;38.93
54554;BME280;40450;55.848;-3.572;2022-07-19T00:46:58;99208.44;;;23.57;37.48
54554;BME280;40450;55.848;-3.572;2022-07-19T00:49:28;99211.63;;;23.78;36.64
54554;BME280;40450;55.848;-3.572;2022-07-19T00:51:59;99211.73;;;24.07;36.00
54554;BME280;40450;55.848;-3.572;2022-07-19T00:54:30;99219.35;;;24.09;36.09
54554;BME280;40450;55.848;-3.572;2022-07-19T00:57:00;99220.98;;;22.24;40.69
54554;BME280;40450;55.848;-3.572;2022-07-19T00:59:30;99218.18;;;21.50;44.12
54554;BME280;40450;55.848;-3.572;2022-07-19T01:02:00;99216.76;;;22.60;40.24
54554;BME280;40450;55.848;-3.572;2022-07-19T01:04:31;99217.95;;;23.07;39.63
54554;BME280;40450;55.848;-3.572;2022-07-19T01:07:01;99222.21;;;23.39;37.97
54554;BME280;40450;55.848;-3.572;2022-07-19T01:09:31;99217.55;;;22.76;40.04
54554;BME280;40450;55.848;-3.572;2022-07-19T01:12:02;99217.37;;;22.81;39.59
54554;BME280;40450;55.848;-3.572;2022-07-19T01:14:32;99214.13;;;22.42;39.97
54554;BME280;40450;55.848;-3.572;2022-07-19T01:17:02;99205.45;;;22.69;40.04
54554;BME280;40450;55.848;-3.572;2022-07-19T01:19:32;99209.66;;;22.73;39.57
54554;BME280;40450;55.848;-3.572;2022-07-19T01:22:02;99207.25;;;23.10;39.04
54554;BME280;40450;55.848;-3.572;2022-07-19T01:24:33;99204.93;;;23.35;38.47
54554;BME280;40450;55.848;-3.572;2022-07-19T01:27:03;99199.73;;;22.92;38.32
54554;BME280;40450;55.848;-3.572;2022-07-19T01:29:34;99206.23;;;22.51;39.99
54554;BME280;40450;55.848;-3.572;2022-07-19T01:32:05;99205.02;;;22.23;40.54
54554;BME280;40450;55.848;-3.572;2022-07-19T01:34:34;99204.09;;;22.52;40.52
54554;BME280;40450;55.848;-3.572;2022-07-19T01:37:05;99208.18;;;22.48;41.05
54554;BME280;40450;55.848;-3.572;2022-07-19T01:39:35;99204.66;;;22.01;40.43
54554;BME280;40450;55.848;-3.572;2022-07-19T01:42:06;99204.05;;;20.51;46.84
54554;BME280;40450;55.848;-3.572;2022-07-19T01:44:36;99196.35;;;22.07;42.29
54554;BME280;40450;55.848;-3.572;2022-07-19T01:47:06;99195.14;;;22.31;42.39
54554;BME280;40450;55.848;-3.572;2022-07-19T01:49:36;99196.75;;;21.74;43.51
54554;BME280;40450;55.848;-3.572;2022-07-19T01:52:07;99191.53;;;21.75;44.05
54554;BME280;40450;55.848;-3.572;2022-07-19T01:54:37;99183.48;;;21.49;43.68
54554;BME280;40450;55.848;-3.572;2022-07-19T01:57:08;99186.49;;;21.81;44.56
54554;BME280;40450;55.848;-3.572;2022-07-19T01:59:37;99183.63;;;21.90;44.78
54554;BME280;40450;55.848;-3.572;2022-07-19T02:02:08;99185.10;;;21.64;45.65
54554;BME280;40450;55.848;-3.572;2022-07-19T02:04:38;99183.03;;;21.68;45.50
54554;BME280;40450;55.848;-3.572;2022-07-19T02:07:08;99179.22;;;21.98;44.44
54554;BME280;40450;55.848;-3.572;2022-07-19T02:09:38;99179.20;;;21.86;43.66
54554;BME280;40450;55.848;-3.572;2022-07-19T02:12:09;99181.22;;;22.19;43.36
54554;BME280;40450;55.848;-3.572;2022-07-19T02:14:39;99178.54;;;22.16;42.41
54554;BME280;40450;55.848;-3.572;2022-07-19T02:17:09;99185.00;;;22.47;42.76
54554;BME280;40450;55.848;-3.572;2022-07-19T02:19:40;99178.54;;;22.76;42.04
54554;BME280;40450;55.848;-3.572;2022-07-19T02:22:10;99177.87;;;22.28;43.43
54554;BME280;40450;55.848;-3.572;2022-07-19T02:24:40;99170.16;;;22.34;43.65
54554;BME280;40450;55.848;-3.572;2022-07-19T02:27:11;99161.18;;;22.32;43.63
54554;BME280;40450;55.848;-3.572;2022-07-19T02:29:41;99158.66;;;22.65;43.80
54554;BME280;40450;55.848;-3.572;2022-07-19T02:32:12;99162.84;;;22.36;44.28
54554;BME280;40450;55.848;-3.572;2022-07-19T02:34:42;99163.68;;;22.61;43.84
54554;BME280;40450;55.848;-3.572;2022-07-19T02:37:12;99164.60;;;22.02;46.37
54554;BME280;40450;55.848;-3.572;2022-07-19T02:39:42;99165.13;;;22.29;45.45
54554;BME280;40450;55.848;-3.572;2022-07-19T02:42:13;99163.28;;;22.02;44.62
54554;BME280;40450;55.848;-3.572;2022-07-19T02:44:43;99165.96;;;22.24;45.47
54554;BME280;40450;55.848;-3.572;2022-07-19T02:47:14;99159.32;;;21.92;46.75
54554;BME280;40450;55.848;-3.572;2022-07-19T02:49:44;99166.92;;;21.93;46.01
54554;BME280;40450;55.848;-3.572;2022-07-19T02:52:15;99159.85;;;22.16;46.32
54554;BME280;40450;55.848;-3.572;2022-07-19T02:54:45;99157.96;;;22.25;46.29
54554;BME280;40450;55.848;-3.572;2022-07-19T02:57:15;99153.59;;;22.29;45.52
54554;BME280;40450;55.848;-3.572;2022-07-19T02:59:45;99152.03;;;22.21;46.00
54554;BME280;40450;55.848;-3.572;2022-07-19T03:02:16;99145.93;;;21.96;46.48
54554;BME280;40450;55.848;-3.572;2022-07-19T03:04:46;99143.06;;;21.61;47.80
54554;BME280;40450;55.848;-3.572;2022-07-19T03:07:18;99136.47;;;21.70;46.70
54554;BME280;40450;55.848;-3.572;2022-07-19T03:09:47;99133.61;;;21.97;47.16
54554;BME280;40450;55.848;-3.572;2022-07-19T03:12:17;99141.55;;;21.55;48.03
54554;BME280;40450;55.848;-3.572;2022-07-19T03:14:47;99138.41;;;21.24;48.75
54554;BME280;40450;55.848;-3.572;2022-07-19T03:17:18;99138.65;;;20.76;50.54
54554;BME280;40450;55.848;-3.572;2022-07-19T03:19:49;99133.00;;;20.74;50.05
54554;BME280;40450;55.848;-3.572;2022-07-19T03:22:19;99129.11;;;20.65;51.13
54554;BME280;40450;55.848;-3.572;2022-07-19T03:24:49;99127.19;;;20.67;50.84
54554;BME280;40450;55.848;-3.572;2022-07-19T03:27:19;99120.55;;;21.27;50.15
54554;BME280;40450;55.848;-3.572;2022-07-19T03:29:50;99112.49;;;21.70;47.78
54554;BME280;40450;55.848;-3.572;2022-07-19T03:32:20;99106.30;;;21.97;47.45
54554;BME280;40450;55.848;-3.572;2022-07-19T03:34:51;99098.18;;;22.16;46.94
54554;BME280;40450;55.848;-3.572;2022-07-19T03:37:21;99088.13;;;22.08;47.10
54554;BME280;40450;55.848;-3.572;2022-07-19T03:39:51;99085.18;;;22.23;46.77
54554;BME280;40450;55.848;-3.572;2022-07-19T03:42:22;99095.80;;;22.10;47.12
54554;BME280;40450;55.848;-3.572;2022-07-19T03:44:52;99086.90;;;22.21;47.11
54554;BME280;40450;55.848;-3.572;2022-07-19T03:47:22;99072.82;;;22.54;46.64
54554;BME280;40450;55.848;-3.572;2022-07-19T03:49:52;99071.71;;;22.74;45.78
54554;BME280;40450;55.848;-3.572;2022-07-19T03:52:23;99066.68;;;22.82;45.00
54554;BME280;40450;55.848;-3.572;2022-07-19T03:54:53;99058.55;;;22.68;45.11
54554;BME280;40450;55.848;-3.572;2022-07-19T03:57:23;99073.04;;;22.71;45.30
54554;BME280;40450;55.848;-3.572;2022-07-19T03:59:53;99068.19;;;22.68;45.40
54554;BME280;40450;55.848;-3.572;2022-07-19T04:02:24;99054.60;;;22.62;45.78
54554;BME280;40450;55.848;-3.572;2022-07-19T04:04:54;99055.09;;;23.00;45.29
54554;BME280;40450;55.848;-3.572;2022-07-19T04:07:25;99057.97;;;23.16;45.00
54554;BME280;40450;55.848;-3.572;2022-07-19T04:09:55;99057.34;;;22.88;45.06
54554;BME280;40450;55.848;-3.572;2022-07-19T04:12:25;99055.02;;;22.95;45.68
54554;BME280;40450;55.848;-3.572;2022-07-19T04:14:56;99063.30;;;23.17;45.18
54554;BME280;40450;55.848;-3.572;2022-07-19T04:17:26;99064.68;;;23.35;45.01
54554;BME280;40450;55.848;-3.572;2022-07-19T04:19:56;99072.26;;;23.48;43.95
54554;BME280;40450;55.848;-3.572;2022-07-19T04:22:27;99064.74;;;23.55;44.02
54554;BME280;40450;55.848;-3.572;2022-07-19T04:24:57;99070.56;;;23.45;44.35
54554;BME280;40450;55.848;-3.572;2022-07-19T04:27:27;99066.53;;;23.47;43.81
54554;BME280;40450;55.848;-3.572;2022-07-19T04:29:57;99063.97;;;23.56;43.53
54554;BME280;40450;55.848;-3.572;2022-07-19T04:32:27;99059.11;;;23.51;43.70
54554;BME280;40450;55.848;-3.572;2022-07-19T04:34:57;99040.26;;;22.81;46.21
54554;BME280;40450;55.848;-3.572;2022-07-19T04:37:28;99038.33;;;22.19;48.85
54554;BME280;40450;55.848;-3.572;2022-07-19T04:39:58;99039.46;;;21.92;49.74
54554;BME280;40450;55.848;-3.572;2022-07-19T04:42:28;99032.52;;;21.74;49.64
54554;BME280;40450;55.848;-3.572;2022-07-19T04:44:58;99041.29;;;22.10;50.00
54554;BME280;40450;55.848;-3.572;2022-07-19T04:47:29;99036.73;;;22.26;49.68
54554;BME280;40450;55.848;-3.572;2022-07-19T04:50:02;99035.59;;;22.07;49.95
54554;BME280;40450;55.848;-3.572;2022-07-19T04:52:29;99043.54;;;22.14;50.07
54554;BME280;40450;55.848;-3.572;2022-07-19T04:55:00;99052.55;;;22.25;49.60
54554;BME280;40450;55.848;-3.572;2022-07-19T04:57:30;99055.48;;;21.98;49.41
54554;BME280;40450;55.848;-3.572;2022-07-19T05:00:01;99057.51;;;21.92;49.96
54554;BME280;40450;55.848;-3.572;2022-07-19T05:02:30;99063.32;;;22.16;50.55
54554;BME280;40450;55.848;-3.572;2022-07-19T05:05:00;99071.00;;;22.06;50.84
54554;BME280;40450;55.848;-3.572;2022-07-19T05:07:31;99065.83;;;22.18;50.76
54554;BME280;40450;55.848;-3.572;2022-07-19T05:10:01;99070.18;;;22.53;50.08
54554;BME280;40450;55.848;-3.572;2022-07-19T05:12:32;99064.50;;;22.69;48.19
54554;BME280;40450;55.848;-3.572;2022-07-19T05:15:02;99062.29;;;22.84;49.30
54554;BME280;40450;55.848;-3.572;2022-07-19T05:17:32;99056.44;;;23.15;48.09
54554;BME280;40450;55.848;-3.572;2022-07-19T05:20:03;99071.21;;;23.30;48.52
54554;BME280;40450;55.848;-3.572;2022-07-19T05:22:32;99080.44;;;23.20;48.77
54554;BME280;40450;55.848;-3.572;2022-07-19T05:25:03;99080.48;;;23.23;49.15
54554;BME280;40450;55.848;-3.572;2022-07-19T05:27:33;99079.45;;;23.18;48.86
54554;BME280;40450;55.848;-3.572;2022-07-19T05:30:04;99090.62;;;23.26;48.84
54554;BME280;40450;55.848;-3.572;2022-07-19T05:32:33;99082.19;;;23.47;49.01
54554;BME280;40450;55.848;-3.572;2022-07-19T05:35:04;99087.84;;;23.45;48.67
54554;BME280;40450;55.848;-3.572;2022-07-19T05:37:34;99091.08;;;23.13;49.62
54554;BME280;40450;55.848;-3.572;2022-07-19T05:40:05;99070.29;;;23.00;51.20
54554;BME280;40450;55.848;-3.572;2022-07-19T05:42:35;99069.44;;;22.93;50.80
54554;BME280;40450;55.848;-3.572;2022-07-19T05:45:06;99057.39;;;23.31;51.22
54554;BME280;40450;55.848;-3.572;2022-07-19T05:47:35;99062.59;;;23.58;50.15
54554;BME280;40450;55.848;-3.572;2022-07-19T05:50:06;99065.24;;;23.90;50.20
54554;BME280;40450;55.848;-3.572;2022-07-19T05:52:35;99059.67;;;23.94;48.85
54554;BME280;40450;55.848;-3.572;2022-07-19T05:55:07;99084.58;;;23.63;50.66
54554;BME280;40450;55.848;-3.572;2022-07-19T05:57:36;99090.45;;;23.18;52.66
54554;BME280;40450;55.848;-3.572;2022-07-19T06:00:08;99095.10;;;22.90;50.55
54554;BME280;40450;55.848;-3.572;2022-07-19T06:02:37;99098.31;;;22.49;51.32
54554;BME280;40450;55.848;-3.572;2022-07-19T06:05:08;99100.67;;;22.30;51.33
54554;BME280;40450;55.848;-3.572;2022-07-19T06:07:38;99098.41;;;22.80;51.76
54554;BME280;40450;55.848;-3.572;2022-07-19T06:10:09;99070.79;;;21.71;53.62
54554;BME280;40450;55.848;-3.572;2022-07-19T06:12:38;99054.18;;;23.59;51.44
54554;BME280;40450;55.848;-3.572;2022-07-19T06:15:10;99045.54;;;23.83;50.40
54554;BME280;40450;55.848;-3.572;2022-07-19T06:17:39;99058.02;;;24.32;50.73
54554;BME280;40450;55.848;-3.572;2022-07-19T06:20:10;99036.31;;;24.23;51.85
54554;BME280;40450;55.848;-3.572;2022-07-19T06:22:40;99030.20;;;24.57;51.53
54554;BME280;40450;55.848;-3.572;2022-07-19T06:25:10;99023.92;;;24.99;50.87
54554;BME280;40450;55.848;-3.572;2022-07-19T06:27:41;99023.07;;;22.13;58.49
54554;BME280;40450;55.848;-3.572;2022-07-19T06:30:11;99032.52;;;21.40;59.76
54554;BME280;40450;55.848;-3.572;2022-07-19T06:32:41;99028.59;;;23.06;54.15
54554;BME280;40450;55.848;-3.572;2022-07-19T06:35:12;99025.66;;;21.45;58.42
54554;BME280;40450;55.848;-3.572;2022-07-19T06:37:42;99020.40;;;22.07;57.59
54554;BME280;40450;55.848;-3.572;2022-07-19T06:40:12;99019.68;;;22.43;57.73
54554;BME280;40450;55.848;-3.572;2022-07-19T06:42:43;99018.64;;;21.14;60.45
54554;BME280;40450;55.848;-3.572;2022-07-19T06:45:12;99010.75;;;20.84;60.96
54554;BME280;40450;55.848;-3.572;2022-07-19T06:47:43;99004.67;;;20.65;62.07
54554;BME280;40450;55.848;-3.572;2022-07-19T06:50:13;98998.23;;;21.10;61.42
54554;BME280;40450;55.848;-3.572;2022-07-19T06:52:49;98990.73;;;22.16;59.88
54554;BME280;40450;55.848;-3.572;2022-07-19T06:55:14;98981.88;;;21.58;58.71
54554;BME280;40450;55.848;-3.572;2022-07-19T06:57:44;98965.56;;;22.91;54.29
54554;BME280;40450;55.848;-3.572;2022-07-19T07:00:15;98951.87;;;23.29;55.25
54554;BME280;40450;55.848;-3.572;2022-07-19T07:02:45;98949.49;;;24.31;51.14
54554;BME280;40450;55.848;-3.572;2022-07-19T07:05:15;98943.50;;;24.63;48.25
54554;BME280;40450;55.848;-3.572;2022-07-19T07:07:45;98934.50;;;24.98;50.07
54554;BME280;40450;55.848;-3.572;2022-07-19T07:10:15;98935.43;;;25.45;49.23
54554;BME280;40450;55.848;-3.572;2022-07-19T07:12:46;98928.71;;;25.33;47.56
54554;BME280;40450;55.848;-3.572;2022-07-19T07:15:16;98930.55;;;25.65;48.36
54554;BME280;40450;55.848;-3.572;2022-07-19T07:17:46;98930.33;;;25.88;47.82
54554;BME280;40450;55.848;-3.572;2022-07-19T07:20:17;98924.11;;;25.08;48.07
54554;BME280;40450;55.848;-3.572;2022-07-19T07:22:47;98927.55;;;24.92;49.46
54554;BME280;40450;55.848;-3.572;2022-07-19T07:25:17;98962.03;;;21.41;61.50
54554;BME280;40450;55.848;-3.572;2022-07-19T07:27:48;98963.71;;;20.92;63.63
54554;BME280;40450;55.848;-3.572;2022-07-19T07:30:18;98961.63;;;19.80;68.57
54554;BME280;40450;55.848;-3.572;2022-07-19T07:32:48;98950.38;;;19.48;69.73
54554;BME280;40450;55.848;-3.572;2022-07-19T07:35:18;98969.00;;;22.62;59.95
54554;BME280;40450;55.848;-3.572;2022-07-19T07:37:49;98985.36;;;23.51;58.36
54554;BME280;40450;55.848;-3.572;2022-07-19T07:40:19;98944.64;;;21.77;60.21
54554;BME280;40450;55.848;-3.572;2022-07-19T07:42:49;98946.01;;;22.85;59.16
54554;BME280;40450;55.848;-3.572;2022-07-19T07:45:20;98920.46;;;23.39;57.13
54554;BME280;40450;55.848;-3.572;2022-07-19T07:47:50;98930.20;;;21.96;59.04
54554;BME280;40450;55.848;-3.572;2022-07-19T07:50:20;98944.21;;;20.57;66.39
54554;BME280;40450;55.848;-3.572;2022-07-19T07:52:51;98954.07;;;18.67;73.56
54554;BME280;40450;55.848;-3.572;2022-07-19T07:55:21;98936.62;;;19.75;69.24
54554;BME280;40450;55.848;-3.572;2022-07-19T07:57:51;98933.82;;;22.28;64.02
54554;BME280;40450;55.848;-3.572;2022-07-19T08:00:22;98891.53;;;23.14;57.07
54554;BME280;40450;55.848;-3.572;2022-07-19T08:02:52;98886.33;;;23.69;57.50
54554;BME280;40450;55.848;-3.572;2022-07-19T08:05:22;98868.60;;;24.06;56.68
54554;BME280;40450;55.848;-3.572;2022-07-19T08:07:52;98868.67;;;24.70;55.02
54554;BME280;40450;55.848;-3.572;2022-07-19T08:10:24;98893.56;;;24.90;53.71
54554;BME280;40450;55.848;-3.572;2022-07-19T08:12:53;98918.89;;;24.80;53.51
54554;BME280;40450;55.848;-3.572;2022-07-19T08:15:22;98906.61;;;25.14;53.43
54554;BME280;40450;55.848;-3.572;2022-07-19T08:17:52;98875.22;;;25.72;52.43
54554;BME280;40450;55.848;-3.572;2022-07-19T08:20:23;98885.65;;;25.41;51.28
54554;BME280;40450;55.848;-3.572;2022-07-19T08:22:54;98904.77;;;25.60;52.80
54554;BME280;40450;55.848;-3.572;2022-07-19T08:25:24;98900.39;;;25.04;54.59
54554;BME280;40450;55.848;-3.572;2022-07-19T08:27:55;98895.73;;;25.61;52.25
54554;BME280;40450;55.848;-3.572;2022-07-19T08:30:25;98889.69;;;25.56;51.00
54554;BME280;40450;55.848;-3.572;2022-07-19T08:32:55;98875.85;;;26.32;50.17
54554;BME280;40450;55.848;-3.572;2022-07-19T08:35:25;98882.17;;;25.74;52.15
54554;BME280;40450;55.848;-3.572;2022-07-19T08:37:55;98886.43;;;26.57;49.53
54554;BME280;40450;55.848;-3.572;2022-07-19T08:40:26;98884.31;;;26.81;47.88
54554;BME280;40450;55.848;-3.572;2022-07-19T08:42:56;98892.51;;;26.16;48.82
54554;BME280;40450;55.848;-3.572;2022-07-19T08:45:27;98909.55;;;26.23;45.91
54554;BME280;40450;55.848;-3.572;2022-07-19T08:47:57;98905.29;;;26.38;46.96
54554;BME280;40450;55.848;-3.572;2022-07-19T08:50:26;98894.12;;;26.71;48.05
54554;BME280;40450;55.848;-3.572;2022-07-19T08:52:57;98916.88;;;26.75;48.75
54554;BME280;40450;55.848;-3.572;2022-07-19T08:55:27;98914.17;;;26.77;47.58
54554;BME280;40450;55.848;-3.572;2022-07-19T08:57:57;98899.22;;;26.19;48.77
54554;BME280;40450;55.848;-3.572;2022-07-19T09:00:29;98905.15;;;26.96;43.93
54554;BME280;40450;55.848;-3.572;2022-07-19T09:02:59;98932.29;;;26.17;47.57
54554;BME280;40450;55.848;-3.572;2022-07-19T09:05:29;98943.77;;;22.49;62.58
54554;BME280;40450;55.848;-3.572;2022-07-19T09:08:05;98934.76;;;23.78;59.02
54554;BME280;40450;55.848;-3.572;2022-07-19T09:10:28;98942.48;;;24.39;55.55
54554;BME280;40450;55.848;-3.572;2022-07-19T09:13:00;98938.31;;;23.78;58.66
54554;BME280;40450;55.848;-3.572;2022-07-19T09:15:37;98926.37;;;25.52;55.08
54554;BME280;40450;55.848;-3.572;2022-07-19T09:18:07;98901.23;;;25.20;53.15
54554;BME280;40450;55.848;-3.572;2022-07-19T09:20:29;98901.39;;;23.63;60.71
54554;BME280;40450;55.848;-3.572;2022-07-19T09:23:01;98934.70;;;25.65;55.10
54554;BME280;40450;55.848;-3.572;2022-07-19T09:25:33;98926.59;;;26.67;49.79
54554;BME280;40450;55.848;-3.572;2022-07-19T09:28:01;98891.07;;;27.09;48.71
54554;BME280;40450;55.848;-3.572;2022-07-19T09:30:35;98903.55;;;27.16;48.54
54554;BME280;40450;55.848;-3.572;2022-07-19T09:33:07;98880.93;;;26.91;49.25
54554;BME280;40450;55.848;-3.572;2022-07-19T09:35:36;98890.97;;;27.90;46.36
54554;BME280;40450;55.848;-3.572;2022-07-19T09:40:32;98898.82;;;27.76;44.65
54554;BME280;40450;55.848;-3.572;2022-07-19T09:43:02;98889.01;;;26.99;46.35
54554;BME280;40450;55.848;-3.572;2022-07-19T09:45:33;98884.50;;;26.19;48.16
54554;BME280;40450;55.848;-3.572;2022-07-19T09:48:03;98883.80;;;26.42;48.19
54554;BME280;40450;55.848;-3.572;2022-07-19T09:50:33;98880.52;;;25.92;46.46
54554;BME280;40450;55.848;-3.572;2022-07-19T09:53:05;98882.21;;;24.55;54.78
54554;BME280;40450;55.848;-3.572;2022-07-19T09:55:37;98892.92;;;23.89;57.51
54554;BME280;40450;55.848;-3.572;2022-07-19T09:58:05;98893.95;;;23.62;57.73
54554;BME280;40450;55.848;-3.572;2022-07-19T10:00:35;98884.78;;;23.86;56.10
54554;BME280;40450;55.848;-3.572;2022-07-19T10:03:05;98895.84;;;23.97;55.79
54554;BME280;40450;55.848;-3.572;2022-07-19T10:05:36;98889.78;;;25.04;53.44
54554;BME280;40450;55.848;-3.572;2022-07-19T10:08:05;98886.52;;;26.58;45.22
54554;BME280;40450;55.848;-3.572;2022-07-19T10:10:36;98890.89;;;27.60;42.84
54554;BME280;40450;55.848;-3.572;2022-07-19T10:13:07;98888.15;;;26.48;44.48
54554;BME280;40450;55.848;-3.572;2022-07-19T10:15:39;98878.46;;;23.99;49.36
54554;BME280;40450;55.848;-3.572;2022-07-19T10:18:10;98896.02;;;27.20;43.17
54554;BME280;40450;55.848;-3.572;2022-07-19T10:20:38;98948.16;;;28.11;42.00
54554;BME280;40450;55.848;-3.572;2022-07-19T10:23:08;98919.26;;;26.46;45.00
54554;BME280;40450;55.848;-3.572;2022-07-19T10:25:40;98915.02;;;28.65;40.79
54554;BME280;40450;55.848;-3.572;2022-07-19T10:30:39;98899.66;;;27.58;40.99
54554;BME280;40450;55.848;-3.572;2022-07-19T10:35:39;98885.03;;;27.61;41.22
54554;BME280;40450;55.848;-3.572;2022-07-19T10:38:10;98881.08;;;27.61;41.94
54554;BME280;40450;55.848;-3.572;2022-07-19T10:40:42;98880.48;;;27.68;42.64
54554;BME280;40450;55.848;-3.572;2022-07-19T10:43:11;98877.20;;;27.58;43.58
54554;BME280;40450;55.848;-3.572;2022-07-19T10:45:43;98883.86;;;28.86;41.34
54554;BME280;40450;55.848;-3.572;2022-07-19T10:48:14;98879.70;;;27.95;40.74
54554;BME280;40450;55.848;-3.572;2022-07-19T10:50:48;98883.82;;;27.01;41.94
54554;BME280;40450;55.848;-3.572;2022-07-19T10:55:42;98894.91;;;24.96;50.53
54554;BME280;40450;55.848;-3.572;2022-07-19T10:58:12;98901.15;;;24.35;50.71
54554;BME280;40450;55.848;-3.572;2022-07-19T11:00:45;98904.29;;;24.63;49.00
54554;BME280;40450;55.848;-3.572;2022-07-19T11:05:46;98900.41;;;24.63;50.35
54554;BME280;40450;55.848;-3.572;2022-07-19T11:08:13;98865.61;;;23.90;52.40
54554;BME280;40450;55.848;-3.572;2022-07-19T11:10:44;98878.73;;;23.63;53.52
54554;BME280;40450;55.848;-3.572;2022-07-19T11:13:16;98898.59;;;24.34;50.44
54554;BME280;40450;55.848;-3.572;2022-07-19T11:15:53;98892.93;;;23.83;51.30
54554;BME280;40450;55.848;-3.572;2022-07-19T11:18:16;98900.40;;;23.88;51.79
54554;BME280;40450;55.848;-3.572;2022-07-19T11:20:45;98882.05;;;23.06;55.80
54554;BME280;40450;55.848;-3.572;2022-07-19T11:23:18;98871.84;;;23.85;53.22
54554;BME280;40450;55.848;-3.572;2022-07-19T11:25:45;98866.83;;;22.83;56.40
54554;BME280;40450;55.848;-3.572;2022-07-19T11:28:20;98868.70;;;22.58;57.69
54554;BME280;40450;55.848;-3.572;2022-07-19T11:30:46;98869.59;;;23.66;53.91
54554;BME280;40450;55.848;-3.572;2022-07-19T11:33:20;98864.47;;;23.49;53.96
54554;BME280;40450;55.848;-3.572;2022-07-19T11:35:52;98868.11;;;22.09;59.08
54554;BME280;40450;55.848;-3.572;2022-07-19T11:38:17;98865.48;;;23.96;55.08
54554;BME280;40450;55.848;-3.572;2022-07-19T11:40:47;98864.37;;;23.80;52.88
54554;BME280;40450;55.848;-3.572;2022-07-19T11:43:17;98867.70;;;24.04;53.24
54554;BME280;40450;55.848;-3.572;2022-07-19T11:45:48;98868.32;;;24.70;50.08
54554;BME280;40450;55.848;-3.572;2022-07-19T11:48:24;98867.39;;;24.75;50.67
54554;BME280;40450;55.848;-3.572;2022-07-19T11:53:19;98862.79;;;23.90;51.78
54554;BME280;40450;55.848;-3.572;2022-07-19T11:55:48;98859.00;;;26.35;43.76
54554;BME280;40450;55.848;-3.572;2022-07-19T11:58:19;98858.22;;;27.40;40.78
54554;BME280;40450;55.848;-3.572;2022-07-19T12:00:50;98863.47;;;24.05;50.18
54554;BME280;40450;55.848;-3.572;2022-07-19T12:03:20;98854.28;;;26.44;46.24
54554;BME280;40450;55.848;-3.572;2022-07-19T12:05:55;98856.07;;;27.88;39.89
54554;BME280;40450;55.848;-3.572;2022-07-19T12:08:20;98850.93;;;27.97;38.77
54554;BME280;40450;55.848;-3.572;2022-07-19T12:10:50;98849.03;;;26.88;41.23
54554;BME280;40450;55.848;-3.572;2022-07-19T12:13:30;98851.67;;;25.39;47.14
54554;BME280;40450;55.848;-3.572;2022-07-19T12:15:53;98847.12;;;24.73;49.41
54554;BME280;40450;55.848;-3.572;2022-07-19T12:18:41;98855.64;;;24.70;49.14
54554;BME280;40450;55.848;-3.572;2022-07-19T12:23:22;98845.46;;;27.07;41.53
54554;BME280;40450;55.848;-3.572;2022-07-19T12:25:52;98833.07;;;28.83;36.71
54554;BME280;40450;55.848;-3.572;2022-07-19T12:28:25;98841.94;;;25.80;45.43
54554;BME280;40450;55.848;-3.572;2022-07-19T12:31:01;98841.14;;;27.35;40.66
54554;BME280;40450;55.848;-3.572;2022-07-19T12:33:25;98832.31;;;27.95;40.97
54554;BME280;40450;55.848;-3.572;2022-07-19T12:35:53;98826.88;;;29.36;37.67
54554;BME280;40450;55.848;-3.572;2022-07-19T12:38:29;98825.03;;;26.11;45.31
54554;BME280;40450;55.848;-3.572;2022-07-19T12:43:24;98811.81;;;28.17;41.99
54554;BME280;40450;55.848;-3.572;2022-07-19T12:45:54;98799.47;;;26.63;44.15
54554;BME280;40450;55.848;-3.572;2022-07-19T12:48:24;98808.06;;;28.10;40.52
54554;BME280;40450;55.848;-3.572;2022-07-19T12:50:55;98803.79;;;28.30;36.64
54554;BME280;40450;55.848;-3.572;2022-07-19T12:53:25;98784.03;;;30.28;36.21
54554;BME280;40450;55.848;-3.572;2022-07-19T12:55:55;98785.37;;;30.98;33.34
54554;BME280;40450;55.848;-3.572;2022-07-19T12:58:26;98786.80;;;30.73;32.64
54554;BME280;40450;55.848;-3.572;2022-07-19T13:00:55;98775.37;;;31.62;31.56
54554;BME280;40450;55.848;-3.572;2022-07-19T13:03:25;98771.28;;;30.68;30.64
54554;BME280;40450;55.848;-3.572;2022-07-19T13:05:56;98776.68;;;27.54;39.43
54554;BME280;40450;55.848;-3.572;2022-07-19T13:08:26;98777.63;;;29.35;34.22
54554;BME280;40450;55.848;-3.572;2022-07-19T13:10:57;98762.01;;;30.40;33.43
54554;BME280;40450;55.848;-3.572;2022-07-19T13:13:27;98758.84;;;31.04;31.60
54554;BME280;40450;55.848;-3.572;2022-07-19T13:15:57;98758.29;;;28.58;36.09
54554;BME280;40450;55.848;-3.572;2022-07-19T13:18:27;98762.85;;;26.98;41.62
54554;BME280;40450;55.848;-3.572;2022-07-19T13:20:58;98760.59;;;27.81;39.70
54554;BME280;40450;55.848;-3.572;2022-07-19T13:23:27;98752.11;;;28.17;38.00
54554;BME280;40450;55.848;-3.572;2022-07-19T13:25:58;98736.52;;;30.10;36.84